Terminal Aerodrome Forecast
Issued by NWS

Home | Current Version | Previous Version | Graphics & Text | Print | Product List | Glossary On
Versions: 1 2 3 4 5 6 7 8 9 10 11 12 13 14 15 16 17 18 19 20 21
000
FTUS43 KICT 250110 AAA
TAFRSL
TAF AMD
KRSL 250110Z 2501/2524 03011KT P6SM VCTS SCT025CB BKN090
      TEMPO 2501/2503 VRB15G35KT 4SM TSRA OVC025CB
     FM250400 29008KT P6SM BKN090
     FM251200 31012KT P6SM SKC
     FM251900 36010KT P6SM SCT050=

USA.gov is the U.S. government's official web portal to all federal, state and local government web resources and services.